createdAt,value
2018-11-02T00:02:18.041Z,100063.69
2018-11-02T00:05:01.918Z,100065.84
2018-11-02T00:07:44.131Z,100072.67
2018-11-02T00:10:26.447Z,100072.81
2018-11-02T00:13:09.319Z,100079.23
2018-11-02T00:15:51.413Z,100083.94
2018-11-02T00:18:34.310Z,100089.11
2018-11-02T00:21:17.186Z,100090.80
2018-11-02T00:23:59.780Z,100091.55
2018-11-02T00:26:42.248Z,100088.05
2018-11-02T00:29:25.352Z,100091.13
2018-11-02T00:32:08.094Z,100098.43
2018-11-02T00:34:49.939Z,100102.30
2018-11-02T00:37:33.028Z,100100.52
2018-11-02T00:40:16.110Z,100094.50
2018-11-02T00:42:58.204Z,100104.82
2018-11-02T00:45:41.104Z,100101.75
2018-11-02T00:48:23.372Z,100099.16
2018-11-02T00:51:05.912Z,100114.23
2018-11-02T00:53:48.780Z,100117.71
2018-11-02T00:56:31.692Z,100123.80
2018-11-02T00:59:14.676Z,100127.59
2018-11-02T01:01:57.089Z,100131.95
2018-11-02T01:04:39.283Z,100137.45
2018-11-02T01:07:21.542Z,100142.16
2018-11-02T01:10:04.704Z,100135.28
2018-11-02T01:12:47.426Z,100134.34
2018-11-02T01:15:29.772Z,100144.23
2018-11-02T01:18:12.457Z,100143.02
2018-11-02T01:20:54.756Z,100146.42
2018-11-02T01:23:36.983Z,100141.15
2018-11-02T01:26:20.166Z,100133.83
2018-11-02T01:29:02.902Z,100113.91
2018-11-02T01:31:45.289Z,100086.02
2018-11-02T01:34:28.038Z,100065.88
2018-11-02T01:37:10.127Z,100071.27
2018-11-02T01:39:52.461Z,100086.98
2018-11-02T01:42:35.512Z,100100.02
2018-11-02T01:45:17.468Z,100105.55
2018-11-02T01:47:59.856Z,100121.59
2018-11-02T01:50:42.705Z,100131.94
2018-11-02T01:53:24.864Z,100132.70
2018-11-02T01:56:07.224Z,100125.45
2018-11-02T01:58:50.087Z,100138.46
2018-11-02T02:01:32.025Z,100143.64
2018-11-02T02:04:14.452Z,100156.97
2018-11-02T02:06:57.065Z,100168.67
2018-11-02T02:09:39.376Z,100166.94
2018-11-02T02:12:21.828Z,100163.92
2018-11-02T02:15:04.471Z,100160.85
2018-11-02T02:17:46.583Z,100168.67
2018-11-02T02:20:29.165Z,100170.80
2018-11-02T02:23:12.083Z,100165.98
2018-11-02T02:25:54.000Z,100164.39
2018-11-02T02:28:36.691Z,100181.13
2018-11-02T02:31:19.401Z,100181.09
2018-11-02T02:34:01.436Z,100183.27
2018-11-02T02:36:43.893Z,100181.52
2018-11-02T02:39:26.543Z,100178.50
2018-11-02T02:42:09.025Z,100184.97
2018-11-02T02:44:51.456Z,100197.59
2018-11-02T02:47:34.014Z,100194.59
2018-11-02T02:50:16.507Z,100206.22
2018-11-02T02:52:58.876Z,100208.36
2018-11-02T02:55:41.350Z,100204.04
2018-11-02T02:58:23.816Z,100210.92
2018-11-02T03:01:06.360Z,100214.75
2018-11-02T03:03:48.880Z,100217.78
2018-11-02T03:06:31.222Z,100224.66
2018-11-02T03:09:13.591Z,100226.87
2018-11-02T03:11:56.093Z,100232.49
2018-11-02T03:14:38.517Z,100235.97
2018-11-02T03:17:20.962Z,100239.84
2018-11-02T03:20:04.105Z,100241.59
2018-11-02T03:22:46.104Z,100244.99
2018-11-02T03:25:28.858Z,100240.68
2018-11-02T03:28:11.005Z,100246.72
2018-11-02T03:30:53.461Z,100249.67
2018-11-02T03:33:36.494Z,100248.02
2018-11-02T03:36:18.529Z,100246.73
2018-11-02T03:39:00.824Z,100256.63
2018-11-02T03:41:43.463Z,100253.59
2018-11-02T03:44:25.664Z,100268.66
2018-11-02T03:47:08.122Z,100272.55
2018-11-02T03:49:50.516Z,100269.51
2018-11-02T03:52:32.989Z,100280.69
2018-11-02T03:55:15.404Z,100284.17
2018-11-02T03:57:57.948Z,100295.75
2018-11-02T04:00:40.977Z,100303.08
2018-11-02T04:03:22.754Z,100302.19
2018-11-02T04:06:06.272Z,100306.52
2018-11-02T04:08:48.980Z,100300.90
2018-11-02T04:11:31.114Z,100309.51
2018-11-02T04:14:13.573Z,100317.30
2018-11-02T04:16:56.009Z,100328.05
2018-11-02T04:19:38.463Z,100333.64
2018-11-02T04:22:21.004Z,100343.13
2018-11-02T04:25:03.753Z,100344.78
2018-11-02T04:27:46.355Z,100352.17
2018-11-02T04:30:28.386Z,100349.52
2018-11-02T04:33:10.922Z,100357.28
2018-11-02T04:35:53.450Z,100357.70
2018-11-02T04:38:35.992Z,100357.72
2018-11-02T04:41:18.463Z,100358.14
2018-11-02T04:44:00.867Z,100365.44
2018-11-02T04:46:43.248Z,100371.05
2018-11-02T04:49:25.678Z,100368.47
2018-11-02T04:52:08.037Z,100379.23
2018-11-02T04:54:50.657Z,100384.82
2018-11-02T04:57:33.031Z,100389.56
2018-11-02T05:00:15.424Z,100395.20
2018-11-02T05:02:57.917Z,100392.17
2018-11-02T05:05:40.286Z,100388.31
2018-11-02T05:08:22.702Z,100397.33
2018-11-02T05:11:05.415Z,100412.43
2018-11-02T05:13:47.646Z,100414.16
2018-11-02T05:16:29.970Z,100427.52
2018-11-02T05:19:12.516Z,100426.66
2018-11-02T05:21:54.869Z,100427.95
2018-11-02T05:24:37.297Z,100445.62
2018-11-02T05:27:19.825Z,100449.52
2018-11-02T05:30:02.501Z,100462.50
2018-11-02T05:32:44.638Z,100466.83
2018-11-02T05:35:27.004Z,100475.03
2018-11-02T05:38:09.421Z,100485.81
2018-11-02T05:40:52.074Z,100488.41
2018-11-02T05:43:34.300Z,100497.02
2018-11-02T05:46:17.043Z,100502.20
2018-11-02T05:48:59.724Z,100502.20
2018-11-02T05:51:41.715Z,100505.64
2018-11-02T05:54:24.264Z,100513.40
2018-11-02T05:57:07.368Z,100520.73
2018-11-02T05:59:50.008Z,100539.68
2018-11-02T06:02:32.608Z,100543.98
2018-11-02T06:05:15.524Z,100552.17
2018-11-02T06:07:57.679Z,100550.88
2018-11-02T06:10:41.228Z,100562.52
2018-11-02T06:13:23.814Z,100570.27
2018-11-02T06:16:06.402Z,100575.44
2018-11-02T06:18:50.020Z,100583.64
2018-11-02T06:21:32.038Z,100580.64
2018-11-02T06:24:14.558Z,100593.55
2018-11-02T06:26:57.054Z,100605.16
2018-11-02T06:29:39.099Z,100608.62
2018-11-02T06:32:22.786Z,100621.95
2018-11-02T06:35:05.617Z,100636.14
2018-11-02T06:37:48.420Z,100639.99
2018-11-02T06:40:30.830Z,100644.31
2018-11-02T06:43:13.319Z,100650.76
2018-11-02T06:45:56.125Z,100653.30
2018-11-02T06:48:38.109Z,100663.20
2018-11-02T06:51:20.544Z,100666.19
2018-11-02T06:54:03.390Z,100670.92
2018-11-02T06:56:45.424Z,100677.80
2018-11-02T06:59:28.981Z,100676.94
2018-11-02T07:02:11.369Z,100688.14
2018-11-02T07:04:53.783Z,100693.28
2018-11-02T07:07:37.263Z,100701.49
2018-11-02T07:10:19.923Z,100705.37
2018-11-02T07:13:02.324Z,100707.92
2018-11-02T07:15:46.527Z,100709.20
2018-11-02T07:18:28.697Z,100724.27
2018-11-02T07:21:11.637Z,100726.42
2018-11-02T07:23:54.396Z,100727.69
2018-11-02T07:26:37.346Z,100730.31
2018-11-02T07:29:19.560Z,100745.34
2018-11-02T07:32:03.042Z,100748.33
2018-11-02T07:34:46.089Z,100756.45
2018-11-02T07:37:28.820Z,100759.50
2018-11-02T07:40:11.672Z,100769.85
2018-11-02T07:42:54.292Z,100766.86
2018-11-02T07:45:37.111Z,100772.44
2018-11-02T07:48:21.043Z,100773.73
2018-11-02T07:51:05.407Z,100776.77
2018-11-02T07:53:48.020Z,100772.91
2018-11-02T07:56:30.963Z,100776.37
2018-11-02T07:59:13.228Z,100780.24
2018-11-02T08:01:55.293Z,100780.66
2018-11-02T08:04:37.749Z,100789.72
2018-11-02T08:07:20.540Z,100796.65
2018-11-02T08:10:04.580Z,100795.78
2018-11-02T08:12:47.006Z,100793.22
2018-11-02T08:15:31.376Z,100798.36
2018-11-02T08:18:13.304Z,100799.27
2018-11-02T08:20:56.349Z,100797.13
2018-11-02T08:23:38.617Z,100801.45
2018-11-02T08:26:22.439Z,100801.96
2018-11-02T08:29:07.060Z,100809.42
2018-11-02T08:31:49.647Z,100817.95
2018-11-02T08:34:32.850Z,100820.52
2018-11-02T08:37:16.448Z,100827.37
2018-11-02T08:39:59.626Z,100832.47
2018-11-02T08:42:42.294Z,100844.13
2018-11-02T08:45:24.675Z,100843.66
2018-11-02T08:48:07.708Z,100847.09
2018-11-02T08:50:51.189Z,100851.88
2018-11-02T08:53:36.401Z,100857.02
2018-11-02T08:56:19.562Z,100866.00
2018-11-02T08:59:02.003Z,100868.21
2018-11-02T09:01:44.760Z,100870.80
2018-11-02T09:04:27.884Z,100882.83
2018-11-02T09:07:12.713Z,100877.65
2018-11-02T09:09:55.288Z,100878.92
2018-11-02T09:12:37.172Z,100875.98
2018-11-02T09:15:23.428Z,100872.50
2018-11-02T09:18:08.331Z,100881.14
2018-11-02T09:20:50.921Z,100885.94
2018-11-02T09:23:35.653Z,100893.17
2018-11-02T09:26:19.638Z,100900.14
2018-11-02T09:29:02.653Z,100907.03
2018-11-02T09:31:46.524Z,100903.19
2018-11-02T09:34:28.803Z,100910.92
2018-11-02T09:37:12.618Z,100912.32
2018-11-02T09:39:54.835Z,100907.66
2018-11-02T09:42:37.183Z,100909.78
2018-11-02T09:45:19.777Z,100918.96
2018-11-02T09:48:01.869Z,100924.94
2018-11-02T09:50:44.507Z,100927.15
2018-11-02T09:53:27.518Z,100926.22
2018-11-02T09:56:10.243Z,100941.75
2018-11-02T09:58:53.757Z,100940.94
2018-11-02T10:01:37.361Z,100944.90
2018-11-02T10:04:19.731Z,100953.55
2018-11-02T10:07:02.633Z,100958.69
2018-11-02T10:09:44.514Z,100948.73
2018-11-02T10:12:28.070Z,100952.67
2018-11-02T10:15:14.530Z,100960.88
2018-11-02T10:17:57.126Z,100971.69
2018-11-02T10:20:41.387Z,100970.36
2018-11-02T10:23:23.236Z,100981.94
2018-11-02T10:26:13.691Z,100986.66
2018-11-02T10:29:05.813Z,100987.50
2018-11-02T10:31:48.068Z,100996.98
2018-11-02T10:34:31.055Z,101003.48
2018-11-02T10:37:12.863Z,100998.70
2018-11-02T10:39:55.643Z,100995.25
2018-11-02T10:42:39.642Z,101009.77
2018-11-02T10:45:23.593Z,101004.74
2018-11-02T10:48:07.285Z,101013.31
2018-11-02T10:50:50.420Z,101017.47
2018-11-02T10:53:32.573Z,101020.07
2018-11-02T10:56:15.867Z,101026.65
2018-11-02T10:58:59.050Z,101025.75
2018-11-02T11:01:46.747Z,101035.70
2018-11-02T11:04:30.482Z,101034.36
2018-11-02T11:07:14.433Z,101041.13
2018-11-02T11:09:56.574Z,101042.94
2018-11-02T11:12:40.201Z,101052.10
2018-11-02T11:15:23.227Z,101055.23
2018-11-02T11:18:06.339Z,101059.75
2018-11-02T11:20:48.724Z,101058.88
2018-11-02T11:23:31.365Z,101063.18
2018-11-02T11:26:13.769Z,101057.67
2018-11-02T11:28:56.408Z,101071.42
2018-11-02T11:31:39.354Z,101069.23
2018-11-02T11:34:23.300Z,101075.77
2018-11-02T11:37:05.587Z,101081.70
2018-11-02T11:39:48.124Z,101078.66
2018-11-02T11:42:31.544Z,101074.39
2018-11-02T11:45:15.329Z,101068.96
2018-11-02T11:47:57.371Z,101068.23
2018-11-02T11:50:40.999Z,101077.72
2018-11-02T11:53:23.919Z,101078.14
2018-11-02T11:56:07.160Z,101088.30
2018-11-02T11:58:49.166Z,101083.88
2018-11-02T12:01:36.748Z,101085.70
2018-11-02T12:04:19.208Z,101094.75
2018-11-02T12:07:01.625Z,101092.98
2018-11-02T12:09:44.017Z,101101.92
2018-11-02T12:12:27.017Z,101106.27
2018-11-02T12:15:10.816Z,101096.82
2018-11-02T12:17:59.811Z,101103.77
2018-11-02T12:20:44.323Z,101102.58
2018-11-02T12:23:26.722Z,101094.17
2018-11-02T12:26:09.648Z,101100.41
2018-11-02T12:28:52.489Z,101098.17
2018-11-02T12:31:35.008Z,101107.59
2018-11-02T12:34:17.221Z,101103.64
2018-11-02T12:36:59.700Z,101107.52
2018-11-02T12:39:43.541Z,101109.31
2018-11-02T12:42:27.195Z,101102.41
2018-11-02T12:45:17.811Z,101108.37
2018-11-02T12:48:01.086Z,101110.05
2018-11-02T12:50:43.592Z,101116.09
2018-11-02T12:53:26.392Z,101106.03
2018-11-02T12:56:09.097Z,101110.96
2018-11-02T12:58:50.870Z,101108.31
2018-11-02T13:01:33.881Z,101119.54
2018-11-02T13:04:17.300Z,101120.36
2018-11-02T13:06:59.238Z,101124.53
2018-11-02T13:09:42.753Z,101128.02
2018-11-02T13:12:25.264Z,101132.31
2018-11-02T13:15:09.454Z,101139.52
2018-11-02T13:17:53.251Z,101137.02
2018-11-02T13:20:35.547Z,101145.36
2018-11-02T13:23:19.038Z,101143.85
2018-11-02T13:26:02.971Z,101141.02
2018-11-02T13:28:45.980Z,101130.47
2018-11-02T13:31:29.578Z,101135.39
2018-11-02T13:34:14.408Z,101132.20
2018-11-02T13:36:56.267Z,101141.10
2018-11-02T13:39:39.739Z,101135.47
2018-11-02T13:42:25.069Z,101145.09
2018-11-02T13:45:08.692Z,101143.50
2018-11-02T13:47:54.666Z,101144.05
2018-11-02T13:50:36.467Z,101148.98
2018-11-02T13:53:19.418Z,101156.34
2018-11-02T13:56:01.697Z,101159.88
2018-11-02T13:58:43.904Z,101159.63
2018-11-02T14:01:26.925Z,101169.72
2018-11-02T14:04:09.767Z,101176.12
2018-11-02T14:06:52.208Z,101184.75
2018-11-02T14:09:35.015Z,101194.33
2018-11-02T14:12:19.668Z,101193.88
2018-11-02T14:15:07.589Z,101199.62
2018-11-02T14:17:57.385Z,101192.70
2018-11-02T14:20:39.505Z,101194.58
2018-11-02T14:23:23.667Z,101204.01
2018-11-02T14:26:09.023Z,101216.53
2018-11-02T14:28:50.963Z,101220.73
2018-11-02T14:31:37.143Z,101227.91
2018-11-02T14:34:22.134Z,101237.81
2018-11-02T14:37:04.352Z,101245.68
2018-11-02T14:39:47.593Z,101245.73
2018-11-02T14:42:31.133Z,101250.84
2018-11-02T14:45:15.210Z,101258.92
2018-11-02T14:48:00.886Z,101259.28
2018-11-02T14:50:44.913Z,101267.89
2018-11-02T14:53:27.509Z,101270.86
2018-11-02T14:56:09.508Z,101277.30
2018-11-02T14:58:51.856Z,101277.61
2018-11-02T15:01:34.284Z,101282.82
2018-11-02T15:04:18.028Z,101283.22
2018-11-02T15:07:02.485Z,101280.20
2018-11-02T15:09:49.471Z,101289.70
2018-11-02T15:12:32.899Z,101293.64
2018-11-02T15:15:15.369Z,101296.58
2018-11-02T15:17:58.544Z,101304.58
2018-11-02T15:20:40.426Z,101309.80
2018-11-02T15:23:22.977Z,101320.75
2018-11-02T15:26:06.920Z,101313.89
2018-11-02T15:28:49.175Z,101317.44
2018-11-02T15:31:31.325Z,101313.59
2018-11-02T15:34:14.265Z,101317.34
2018-11-02T15:36:56.214Z,101325.06
2018-11-02T15:39:39.383Z,101324.84
2018-11-02T15:42:25.293Z,101330.41
2018-11-02T15:45:11.056Z,101338.97
2018-11-02T15:47:53.010Z,101344.94
2018-11-02T15:50:36.805Z,101344.52
2018-11-02T15:53:18.863Z,101342.30
2018-11-02T15:56:01.849Z,101345.26
2018-11-02T15:58:44.930Z,101341.73
2018-11-02T16:01:28.017Z,101336.05
2018-11-02T16:04:12.284Z,101339.06
2018-11-02T16:06:59.162Z,101337.23
2018-11-02T16:09:41.500Z,101331.16
2018-11-02T16:12:27.351Z,101334.01
2018-11-02T16:15:12.221Z,101339.80
2018-11-02T16:17:56.288Z,101341.74
2018-11-02T16:20:38.553Z,101341.53
2018-11-02T16:23:23.114Z,101344.33
2018-11-02T16:26:07.696Z,101345.34
2018-11-02T16:28:50.325Z,101341.30
2018-11-02T16:31:32.421Z,101359.63
2018-11-02T16:34:16.252Z,101365.27
2018-11-02T16:36:58.260Z,101362.41
2018-11-02T16:39:42.688Z,101374.23
2018-11-02T16:42:25.385Z,101377.86
2018-11-02T16:45:09.175Z,101384.89
2018-11-02T16:47:54.696Z,101389.14
2018-11-02T16:50:38.362Z,101388.12
2018-11-02T16:53:21.488Z,101389.14
2018-11-02T16:56:03.376Z,101389.48
2018-11-02T16:58:46.197Z,101400.09
2018-11-02T17:01:29.116Z,101408.02
2018-11-02T17:04:11.548Z,101418.20
2018-11-02T17:06:56.633Z,101420.69
2018-11-02T17:09:38.385Z,101425.23
2018-11-02T17:12:21.997Z,101430.10
2018-11-02T17:15:07.265Z,101445.30
2018-11-02T17:17:50.913Z,101444.22
2018-11-02T17:20:35.622Z,101447.50
2018-11-02T17:23:17.954Z,101457.21
2018-11-02T17:26:01.285Z,101459.38
2018-11-02T17:28:44.773Z,101469.95
2018-11-02T17:31:27.916Z,101469.03
2018-11-02T17:34:10.640Z,101474.88
2018-11-02T17:36:54.500Z,101480.44
2018-11-02T17:39:37.408Z,101491.93
2018-11-02T17:42:22.414Z,101496.12
2018-11-02T17:45:05.053Z,101496.34
2018-11-02T17:47:47.192Z,101498.37
2018-11-02T17:50:31.117Z,101508.88
2018-11-02T17:53:14.220Z,101516.19
2018-11-02T17:55:56.980Z,101509.64
2018-11-02T17:58:40.432Z,101511.53
2018-11-02T18:01:24.250Z,101512.63
2018-11-02T18:04:06.370Z,101522.07
2018-11-02T18:06:49.950Z,101525.52
2018-11-02T18:09:33.064Z,101524.44
2018-11-02T18:12:15.801Z,101520.53
2018-11-02T18:14:58.189Z,101527.72
2018-11-02T18:17:40.742Z,101529.72
2018-11-02T18:20:23.825Z,101538.90
2018-11-02T18:23:08.276Z,101537.16
2018-11-02T18:25:52.792Z,101544.61
2018-11-02T18:28:36.829Z,101545.20
2018-11-02T18:31:18.788Z,101538.92
2018-11-02T18:34:01.573Z,101543.41
2018-11-02T18:36:44.121Z,101550.66
2018-11-02T18:39:26.664Z,101558.99
2018-11-02T18:42:10.597Z,101561.11
2018-11-02T18:44:55.089Z,101572.94
2018-11-02T18:47:43.003Z,101578.70
2018-11-02T18:50:25.707Z,101590.45
2018-11-02T18:53:08.111Z,101586.30
2018-11-02T18:55:53.205Z,101596.52
2018-11-02T18:58:35.902Z,101597.59
2018-11-02T19:01:19.455Z,101595.33
2018-11-02T19:04:04.620Z,101597.53
2018-11-02T19:06:48.305Z,101598.55
2018-11-02T19:09:32.743Z,101604.97
2018-11-02T19:12:15.485Z,101607.92
2018-11-02T19:14:59.158Z,101609.20
2018-11-02T19:17:43.551Z,101610.53
2018-11-02T19:20:29.670Z,101611.64
2018-11-02T19:23:12.662Z,101610.42
2018-11-02T19:25:56.679Z,101616.59
2018-11-02T19:28:39.603Z,101613.26
2018-11-02T19:31:22.726Z,101622.95
2018-11-02T19:34:07.008Z,101627.97
2018-11-02T19:36:49.558Z,101634.10
2018-11-02T19:39:32.715Z,101631.70
2018-11-02T19:42:15.945Z,101626.64
2018-11-02T19:45:00.784Z,101632.80
2018-11-02T19:47:48.609Z,101639.67
2018-11-02T19:50:32.565Z,101637.53
2018-11-02T19:53:18.142Z,101637.19
2018-11-02T19:56:02.150Z,101639.09
2018-11-02T19:58:45.850Z,101646.66
2018-11-02T20:01:28.565Z,101648.17
2018-11-02T20:04:11.359Z,101653.45
2018-11-02T20:06:54.049Z,101644.14
2018-11-02T20:09:36.368Z,101649.95
2018-11-02T20:12:19.825Z,101651.23
2018-11-02T20:15:02.746Z,101647.84
2018-11-02T20:17:45.812Z,101650.28
2018-11-02T20:20:29.844Z,101657.30
2018-11-02T20:23:13.532Z,101663.67
2018-11-02T20:25:56.999Z,101661.66
2018-11-02T20:28:39.749Z,101668.62
2018-11-02T20:31:23.068Z,101673.33
2018-11-02T20:34:07.244Z,101673.33
2018-11-02T20:36:49.588Z,101674.64
2018-11-02T20:39:31.798Z,101672.67
2018-11-02T20:42:16.493Z,101679.58
2018-11-02T20:44:59.462Z,101674.42
2018-11-02T20:47:48.307Z,101683.72
2018-11-02T20:50:30.542Z,101686.70
2018-11-02T20:53:14.850Z,101679.62
2018-11-02T20:55:57.642Z,101680.56
2018-11-02T20:58:39.927Z,101689.39
2018-11-02T21:01:22.734Z,101679.97
2018-11-02T21:04:05.781Z,101682.45
2018-11-02T21:06:48.766Z,101685.27
2018-11-02T21:09:31.762Z,101693.23
2018-11-02T21:12:14.284Z,101698.48
2018-11-02T21:14:58.344Z,101704.80
2018-11-02T21:17:41.194Z,101705.88
2018-11-02T21:20:24.596Z,101700.22
2018-11-02T21:23:11.944Z,101711.14
2018-11-02T21:25:55.140Z,101713.40
2018-11-02T21:28:38.691Z,101718.92
2018-11-02T21:31:22.665Z,101719.97
2018-11-02T21:34:04.681Z,101727.30
2018-11-02T21:36:47.062Z,101723.63
2018-11-02T21:39:30.472Z,101721.70
2018-11-02T21:42:12.981Z,101729.19
2018-11-02T21:44:55.186Z,101726.70
2018-11-02T21:47:38.374Z,101723.70
2018-11-02T21:50:21.008Z,101720.81
2018-11-02T21:53:03.638Z,101718.06
2018-11-02T21:55:46.905Z,101722.98
2018-11-02T21:58:29.525Z,101734.69
2018-11-02T22:01:20.737Z,101739.80
2018-11-02T22:04:10.337Z,101734.95
2018-11-02T22:06:52.950Z,101737.97
2018-11-02T22:09:37.400Z,101738.05
2018-11-02T22:12:19.416Z,101746.86
2018-11-02T22:15:04.732Z,101751.02
2018-11-02T22:17:47.338Z,101746.83
2018-11-02T22:20:30.709Z,101745.55
2018-11-02T22:23:13.526Z,101750.34
2018-11-02T22:25:55.645Z,101760.33
2018-11-02T22:28:40.200Z,101755.70
2018-11-02T22:31:22.480Z,101759.94
2018-11-02T22:34:04.921Z,101761.44
2018-11-02T22:36:47.669Z,101757.31
2018-11-02T22:39:29.764Z,101753.58
2018-11-02T22:42:12.240Z,101745.25
2018-11-02T22:44:55.908Z,101745.36
2018-11-02T22:47:37.868Z,101748.68
2018-11-02T22:50:20.190Z,101753.29
2018-11-02T22:53:06.153Z,101750.95
2018-11-02T22:55:48.821Z,101749.34
2018-11-02T22:58:32.060Z,101748.33
2018-11-02T23:01:20.337Z,101751.57
2018-11-02T23:04:03.071Z,101748.61
2018-11-02T23:06:45.421Z,101744.38
2018-11-02T23:09:28.508Z,101747.91
2018-11-02T23:12:10.609Z,101745.19
2018-11-02T23:14:52.944Z,101741.64
2018-11-02T23:17:35.229Z,101743.83
2018-11-02T23:20:17.728Z,101738.37
2018-11-02T23:23:00.132Z,101737.30
2018-11-02T23:25:44.096Z,101734.34
2018-11-02T23:28:26.327Z,101745.43
2018-11-02T23:31:08.761Z,101740.97
2018-11-02T23:33:51.177Z,101744.77
2018-11-02T23:36:34.552Z,101747.13
2018-11-02T23:43:01.308Z,101761.39
2018-11-02T23:45:45.291Z,101757.42
2018-11-02T23:48:27.673Z,101767.95
2018-11-02T23:51:10.136Z,101761.70
2018-11-02T23:53:52.946Z,101755.75
2018-11-02T23:56:35.539Z,101747.84
2018-11-02T23:59:20.048Z,101760.13
